Portada
METAR-TAF:

METAR-TAF

Aeroports :

Yellowknife, Territoris del Nord-oest, Canadà

latitud: 62-28N, longitud: 114-27W, altitud: 205 m

Observació

L'informe es va fer fa 49 minuts, a les 11:00 UTC
Vent 3 kt del Sud
Temperatura 0°C
Humitat 80%
Pressió 1023 hPa
Visibilitat: 24.1 km
Cel clar

METAR: CYZF 301100Z 19003KT 15SM SKC 00/M03 A3020 RMK SLP239

Hora: 05:49 (11:49 UTC)

Pronòstic

L'informe es va fer fa 6 hores i 11 minuts, a les 05:38 UTC
Pronòstic vàlid del 30 a les 06 UTC al 31 a les 06 UTC
Vent 5 kt del Sud
Visibilitat: 10 km
Cel clar
Evolucionant progressivament
l' 30 a les 10 UTC al 30 a les 12 UTC
Vent 3 kt amb direcció variable
Evolucionant progressivament
l' 30 a les 18 UTC al 30 a les 20 UTC
Vent 8 kt del Sud

TAF: CYZF 300538Z 3006/3106 18005KT P6SM SKC BECMG 3010/3012 VRB03KT BECMG 3018/3020 18008KT RMK NXT FCST BY 301200Z

Observacions i pronòstics meteorològics de més de 4000 aeroports (METAR i TAF).

Les estacions disponibles són els punts grocs i vermells al mapa.

Posi el ratolí al punt desitjat per veure el nom de l'estació.

Feu clic per veure les observacions i els pronòstics meteorològics.

Per canviar el mapa: feu clic els botons verds amb una creu de color negre per apropar; al botó verd amb un guió per allunyar la imatge; o en les fletxes verdes per a mapes adjacents.


METAR-TAF: